Time;durP1;ratioP1;P1;durP2;ratioP2;P2;SDS_P1;SDS_P2;PMS_P1;PMS_P2;Temp;Humidity;BMP_temperature;BMP_pressure;BME280_temperature;BME280_humidity;BME280_pressure;Samples;Min_cycle;Max_cycle;Signal;HPM_P1;HPM_P2
2022/07/29 00:02:16;;;;;;;2.45;0.75;;;;;;;17.28;53.26;100476.44;5025710;28;20065;-45
2022/07/29 00:04:43;;;;;;;1.17;0.60;;;;;;;17.28;53.72;100479.06;5027633;28;20045;-45
2022/07/29 00:07:10;;;;;;;1.02;0.38;;;;;;;17.28;53.86;100475.56;5024208;28;20049;-42
2022/07/29 00:09:38;;;;;;;3.67;0.55;;;;;;;17.24;53.63;100473.91;5024024;28;20041;-42
2022/07/29 00:12:17;;;;;;;3.85;0.82;;;;;;;17.24;53.87;100471.31;5022665;28;20053;-46
2022/07/29 00:14:52;;;;;;;2.88;0.55;;;;;;;17.25;54.06;100473.06;5021818;28;20440;-43
2022/07/29 00:17:19;;;;;;;2.72;0.75;;;;;;;17.19;53.78;100469.66;5019590;28;20046;-41
2022/07/29 00:19:45;;;;;;;1.70;0.73;;;;;;;17.18;54.60;100467.94;5025160;28;20092;-42
2022/07/29 00:22:12;;;;;;;4.18;0.63;;;;;;;17.14;54.48;100466.31;5023367;28;20116;-41
2022/07/29 00:24:39;;;;;;;3.03;0.85;;;;;;;17.12;54.85;100475.94;5022467;28;20103;-42
2022/07/29 00:27:05;;;;;;;2.45;1.02;;;;;;;17.12;55.12;100467.25;5021835;28;20054;-42
2022/07/29 00:29:32;;;;;;;3.40;1.17;;;;;;;17.10;54.60;100464.66;5021212;28;20050;-45
2022/07/29 00:32:01;;;;;;;4.28;1.35;;;;;;;17.11;55.21;100463.75;5024546;28;20046;-42
2022/07/29 00:37:14;;;;;;;1.48;0.73;;;;;;;17.06;55.76;100463.00;5020036;28;20080;-44
2022/07/29 00:39:41;;;;;;;4.30;1.40;;;;;;;17.05;55.54;100449.06;5023052;28;20433;-43
2022/07/29 00:42:08;;;;;;;2.92;1.27;;;;;;;16.96;56.42;100463.16;5020581;28;20400;-41
2022/07/29 00:44:37;;;;;;;4.60;0.95;;;;;;;16.91;57.23;100469.41;5023577;28;20053;-44
2022/07/29 00:47:04;;;;;;;2.13;1.02;;;;;;;16.87;56.86;100460.78;5020664;28;20090;-45
2022/07/29 00:49:32;;;;;;;1.40;0.70;;;;;;;16.84;57.16;100471.28;5021887;28;20053;-43
2022/07/29 00:52:02;;;;;;;4.28;1.58;;;;;;;16.85;57.08;100470.38;5019429;28;20049;-43
2022/07/29 00:54:29;;;;;;;6.40;0.90;;;;;;;16.89;57.28;100464.19;5021511;28;20049;-42
2022/07/29 00:56:58;;;;;;;3.78;0.77;;;;;;;16.90;56.95;100457.22;5022706;28;20176;-44
2022/07/29 00:59:26;;;;;;;2.80;0.63;;;;;;;16.85;57.54;100457.31;5034689;28;20619;-43
2022/07/29 01:02:01;;;;;;;5.32;1.73;;;;;;;16.82;57.56;100457.41;5019284;28;20390;-46
2022/07/29 01:04:29;;;;;;;2.35;0.90;;;;;;;16.82;58.39;100460.03;5018827;28;20053;-45
2022/07/29 01:06:56;;;;;;;3.22;1.02;;;;;;;16.80;57.90;100461.78;5021633;28;20079;-47
2022/07/29 01:09:26;;;;;;;2.10;1.00;;;;;;;16.74;58.85;100467.16;5022172;28;20516;-45
2022/07/29 01:12:18;;;;;;;2.22;0.73;;;;;;;16.75;58.32;100463.66;5017576;28;20038;-40
2022/07/29 01:14:46;;;;;;;3.60;1.13;;;;;;;16.77;57.95;100461.84;5018488;28;20087;-45
2022/07/29 01:30:51;;;;;;;5.05;1.15;;;;;;;16.69;59.66;100465.50;5034434;27;20764;-44
2022/07/29 01:36:14;;;;;;;4.18;1.05;;;;;;;16.61;59.70;100472.66;5005424;28;20983;-45
2022/07/29 01:38:46;;;;;;;3.20;1.17;;;;;;;16.63;59.98;100476.09;5001079;28;20045;-46
2022/07/29 01:41:17;;;;;;;2.05;0.68;;;;;;;16.62;60.00;100463.91;5003428;28;20076;-44
2022/07/29 01:43:53;;;;;;;2.72;0.63;;;;;;;16.56;60.64;100464.91;5008694;28;20049;-42
2022/07/29 01:46:24;;;;;;;;;;;;;;;16.40;61.71;100460.88;5001894;28;20061;-44
2022/07/29 01:48:58;;;;;;;4.85;1.00;;;;;;;16.58;59.76;100462.25;5015260;28;20011;-45
2022/07/29 01:51:32;;;;;;;4.45;1.38;;;;;;;16.57;60.18;100458.78;5016804;28;20049;-42
2022/07/29 01:54:08;;;;;;;3.45;0.90;;;;;;;16.58;60.52;100457.03;5007204;28;20057;-43
2022/07/29 01:56:37;;;;;;;4.30;0.63;;;;;;;16.58;60.08;100457.91;5041524;28;20042;-45
2022/07/29 01:59:08;;;;;;;2.05;1.17;;;;;;;16.58;60.33;100464.88;5010956;28;20054;-44
2022/07/29 02:01:37;;;;;;;5.55;1.10;;;;;;;16.59;60.79;100474.47;5010053;28;20057;-41
2022/07/29 02:04:06;;;;;;;2.80;0.60;;;;;;;16.58;60.75;100468.34;5017505;28;20092;-42
2022/07/29 02:06:37;;;;;;;4.95;1.08;;;;;;;16.59;60.42;100469.22;5016686;28;20050;-44
2022/07/29 02:09:05;;;;;;;3.58;1.58;;;;;;;16.57;60.53;100465.78;5015597;28;20502;-42
2022/07/29 02:11:35;;;;;;;2.13;0.80;;;;;;;16.58;60.35;100465.75;5025862;28;20056;-42
2022/07/29 02:14:04;;;;;;;2.70;1.25;;;;;;;16.59;60.65;100464.00;5029490;28;20141;-41
2022/07/29 02:16:35;;;;;;;3.53;0.93;;;;;;;16.60;60.41;100465.72;5003242;28;20103;-43
2022/07/29 02:19:03;;;;;;;3.15;0.85;;;;;;;16.62;60.76;100463.91;5009087;28;20595;-41
2022/07/29 02:21:33;;;;;;;6.90;1.10;;;;;;;16.61;60.56;100464.81;5008852;28;20065;-43
2022/07/29 02:24:01;;;;;;;;;;;;;;;16.40;61.75;100463.50;5002809;28;20049;-44
2022/07/29 02:26:29;;;;;;;3.38;0.98;;;;;;;16.54;61.61;100465.81;5002280;28;19960;-47
2022/07/29 02:28:58;;;;;;;2.95;0.80;;;;;;;16.56;60.81;100459.66;5006494;28;20054;-44
2022/07/29 02:31:29;;;;;;;;;;;;;;;16.37;61.68;100458.31;5004511;28;20049;-43
2022/07/29 02:33:57;;;;;;;5.20;0.82;;;;;;;16.52;60.83;100470.25;5007668;28;19929;-44
2022/07/29 02:36:25;;;;;;;2.78;0.82;;;;;;;16.52;61.37;100467.63;5004502;28;20050;-44
2022/07/29 02:38:57;;;;;;;4.72;1.02;;;;;;;16.56;60.77;100469.28;5002681;28;20493;-43
2022/07/29 02:41:27;;;;;;;2.92;0.70;;;;;;;16.57;60.60;100463.16;4999970;28;20046;-48
2022/07/29 02:44:04;;;;;;;3.15;0.80;;;;;;;16.54;61.08;100460.59;4992797;28;20058;-42
2022/07/29 02:46:34;;;;;;;3.65;1.00;;;;;;;16.56;61.20;100466.66;4995267;28;20058;-43
2022/07/29 02:51:50;;;;;;;4.40;1.40;;;;;;;16.92;60.95;100461.53;5068857;27;20760;-45
2022/07/29 02:54:29;;;;;;;5.38;2.15;;;;;;;16.72;61.25;100458.50;5036053;28;20052;-45
2022/07/29 02:56:59;;;;;;;2.90;1.83;;;;;;;16.70;61.43;100455.91;5046015;28;20046;-45
2022/07/29 02:59:30;;;;;;;5.57;2.63;;;;;;;16.69;61.37;100455.03;5054552;28;20053;-44
2022/07/29 03:01:59;;;;;;;2.75;2.03;;;;;;;16.67;60.86;100456.84;5058164;28;20057;-43
2022/07/29 03:04:28;;;;;;;4.93;1.10;;;;;;;16.68;61.04;100458.56;5044469;28;20416;-45
2022/07/29 03:06:58;;;;;;;2.65;1.98;;;;;;;16.66;60.40;100455.13;5043605;28;20049;-43
2022/07/29 03:09:26;;;;;;;3.35;1.95;;;;;;;16.66;61.33;100455.13;5045410;28;20053;-44
2022/07/29 03:11:54;;;;;;;5.53;2.85;;;;;;;16.65;60.75;100456.00;5045326;28;22154;-42
2022/07/29 03:14:22;;;;;;;4.65;2.92;;;;;;;16.64;60.81;100456.03;5045377;28;20057;-42
2022/07/29 03:16:50;;;;;;;4.97;2.50;;;;;;;16.61;61.14;100451.72;5050308;28;20040;-46
2022/07/29 03:19:18;;;;;;;5.03;3.00;;;;;;;16.59;60.66;100453.53;5050992;28;20056;-43
2022/07/29 03:21:45;;;;;;;5.35;2.72;;;;;;;16.56;61.19;100453.59;5044754;28;20099;-43
2022/07/29 03:24:31;;;;;;;4.03;2.15;;;;;;;16.48;61.04;100455.50;5051985;28;20049;-43
2022/07/29 03:26:58;;;;;;;4.90;1.65;;;;;;;16.52;61.30;100462.41;5052035;28;20493;-47
2022/07/29 03:29:26;;;;;;;7.50;2.25;;;;;;;16.48;61.90;100450.28;5051234;28;20103;-41
2022/07/29 03:32:04;;;;;;;2.20;1.00;;;;;;;16.44;61.37;100445.13;5043576;28;20476;-42
2022/07/29 03:34:35;;;;;;;3.38;1.60;;;;;;;16.43;61.41;100451.25;5047319;28;20053;-43
2022/07/29 03:37:02;;;;;;;3.08;1.83;;;;;;;16.39;61.03;100462.66;5048279;28;20045;-44
2022/07/29 03:39:32;;;;;;;5.43;2.28;;;;;;;16.39;61.64;100459.16;5047075;28;20098;-44
2022/07/29 03:42:00;;;;;;;2.83;1.00;;;;;;;16.36;61.53;100457.50;5053001;28;20471;-41
2022/07/29 03:44:28;;;;;;;2.92;2.00;;;;;;;16.31;61.86;100460.19;5053409;28;20056;-41
2022/07/29 03:46:59;;;;;;;4.95;2.88;;;;;;;16.31;61.75;100467.16;5054957;28;20045;-42
2022/07/29 03:49:27;;;;;;;4.95;2.55;;;;;;;16.29;61.68;100461.13;5046686;28;20045;-42
2022/07/29 03:51:54;;;;;;;4.93;0.98;;;;;;;16.28;61.82;100454.16;5047452;28;20455;-40
2022/07/29 03:54:21;;;;;;;5.40;2.13;;;;;;;16.24;62.24;100448.13;5047592;28;20115;-41
2022/07/29 03:56:51;;;;;;;2.28;1.75;;;;;;;16.20;62.28;100454.31;5049185;28;20057;-41
2022/07/29 03:59:21;;;;;;;4.78;1.00;;;;;;;16.16;62.48;100453.53;5045279;28;20445;-45
2022/07/29 04:01:48;;;;;;;3.47;2.58;;;;;;;16.15;62.08;100459.63;5033429;28;20103;-42
2022/07/29 04:04:15;;;;;;;3.15;1.60;;;;;;;16.12;62.50;100458.81;5034466;28;20053;-43
2022/07/29 04:06:45;;;;;;;3.97;2.35;;;;;;;16.09;62.70;100458.88;5031364;28;20041;-44
2022/07/29 04:09:14;;;;;;;4.32;2.33;;;;;;;16.04;62.82;100467.66;5047510;28;20049;-42
2022/07/29 04:11:41;;;;;;;2.42;1.95;;;;;;;16.07;62.55;100471.97;5041767;28;20045;-40
2022/07/29 04:14:28;;;;;;;2.17;1.80;;;;;;;16.05;62.50;100479.84;5035697;28;20053;-44
2022/07/29 04:16:55;;;;;;;6.18;1.90;;;;;;;16.03;62.75;100467.69;5033906;28;20094;-42
2022/07/29 04:19:22;;;;;;;4.68;2.17;;;;;;;16.02;62.97;100473.81;5031745;28;20045;-44
2022/07/29 04:21:49;;;;;;;4.07;2.05;;;;;;;16.02;62.91;100465.97;5043270;28;20052;-45
2022/07/29 04:24:15;;;;;;;2.13;1.10;;;;;;;16.00;63.23;100459.91;5036389;28;20057;-44
2022/07/29 04:26:43;;;;;;;8.32;2.40;;;;;;;15.99;63.46;100466.03;5040750;28;20041;-42
2022/07/29 04:29:11;;;;;;;3.90;2.97;;;;;;;15.96;63.45;100469.56;5044285;28;20045;-44
2022/07/29 04:31:38;;;;;;;3.78;1.70;;;;;;;15.90;63.73;100470.50;5039464;28;20053;-45
2022/07/29 04:34:05;;;;;;;4.43;2.55;;;;;;;15.87;64.03;100464.50;5043317;28;20118;-43
2022/07/29 04:36:31;;;;;;;3.92;2.30;;;;;;;15.86;63.60;100463.63;5032656;28;20053;-41
2022/07/29 04:38:58;;;;;;;3.47;2.03;;;;;;;15.87;63.47;100467.94;5039722;28;20104;-42
2022/07/29 04:41:25;;;;;;;3.45;1.92;;;;;;;15.87;63.82;100470.56;5043245;28;20049;-42
2022/07/29 04:44:04;;;;;;;6.65;2.88;;;;;;;15.89;63.81;100468.78;5032879;28;20124;-43
2022/07/29 04:46:33;;;;;;;5.28;1.10;;;;;;;15.89;63.80;100467.91;5038515;28;20104;-43
2022/07/29 04:49:00;;;;;;;4.28;2.22;;;;;;;15.90;63.55;100470.50;5034373;28;20076;-45
2022/07/29 04:51:27;;;;;;;3.88;3.47;;;;;;;15.90;64.00;100469.63;5037481;28;20119;-43
2022/07/29 04:53:53;;;;;;;6.78;2.28;;;;;;;15.88;63.60;100472.28;5032062;28;20046;-47
2022/07/29 04:56:20;;;;;;;5.18;2.83;;;;;;;15.90;63.98;100470.50;5037786;28;20050;-44
2022/07/29 04:58:47;;;;;;;5.05;2.00;;;;;;;15.89;63.46;100474.00;5032161;28;20055;-42
2022/07/29 05:01:14;;;;;;;3.83;1.95;;;;;;;15.93;63.50;100475.69;5024942;28;20050;-41
2022/07/29 05:03:41;;;;;;;5.72;2.50;;;;;;;15.92;63.73;100471.34;5034990;28;20055;-44
2022/07/29 05:06:07;;;;;;;4.15;2.17;;;;;;;15.95;63.66;100473.06;5030862;28;20044;-41
2022/07/29 05:08:34;;;;;;;3.35;1.80;;;;;;;15.94;63.79;100480.00;5030703;28;20050;-42
2022/07/29 05:11:01;;;;;;;5.53;2.53;;;;;;;15.97;63.81;100475.66;5032112;28;20055;-41
2022/07/29 05:13:38;;;;;;;4.15;2.10;;;;;;;15.99;63.54;100473.88;5030670;28;20049;-42
2022/07/29 05:16:12;;;;;;;3.05;2.20;;;;;;;15.98;64.01;100480.88;5028151;28;20046;-44
2022/07/29 05:18:40;;;;;;;4.18;2.28;;;;;;;15.99;63.92;100479.09;5038597;28;20080;-42
2022/07/29 05:21:07;;;;;;;3.45;2.20;;;;;;;15.91;64.54;100487.06;5025239;28;20048;-42
2022/07/29 05:23:33;;;;;;;7.47;2.13;;;;;;;15.91;64.66;100485.28;5032124;28;20115;-42
2022/07/29 05:26:00;;;;;;;4.70;2.47;;;;;;;15.94;64.30;100487.84;5036666;28;20098;-41
2022/07/29 05:28:27;;;;;;;5.88;2.08;;;;;;;15.98;64.27;100488.69;5031160;28;20501;-43
2022/07/29 05:30:53;;;;;;;2.92;1.90;;;;;;;16.02;64.33;100489.50;5025348;28;20084;-41
2022/07/29 05:33:20;;;;;;;6.00;2.42;;;;;;;16.05;64.17;100492.91;5028093;28;20111;-40
2022/07/29 05:36:05;;;;;;;5.20;2.58;;;;;;;16.06;64.72;100485.94;5029066;28;20052;-41
2022/07/29 05:38:32;;;;;;;6.13;2.30;;;;;;;16.10;64.53;100491.94;5035003;28;20057;-43
2022/07/29 05:40:59;;;;;;;6.22;2.10;;;;;;;16.13;64.36;100498.00;5032893;28;20091;-42
2022/07/29 05:43:27;;;;;;;6.03;2.08;;;;;;;16.15;64.39;100496.19;5027841;28;20123;-42
2022/07/29 05:45:54;;;;;;;5.10;2.20;;;;;;;16.11;64.81;100502.38;5030425;28;20045;-41
2022/07/29 05:48:20;;;;;;;5.60;2.60;;;;;;;16.13;63.98;100503.22;5035037;28;20057;-43
2022/07/29 05:50:47;;;;;;;6.60;2.17;;;;;;;16.19;64.56;100508.31;5029665;28;20049;-41
2022/07/29 05:53:14;;;;;;;6.20;2.15;;;;;;;16.24;64.01;100507.41;5034930;28;20045;-40
2022/07/29 05:55:46;;;;;;;8.77;2.13;;;;;;;16.27;64.00;100500.34;5034358;28;20457;-40
2022/07/29 05:58:13;;;;;;;3.20;0.77;;;;;;;16.26;64.47;100500.38;5042110;28;20048;-43
2022/07/29 06:00:40;;;;;;;8.20;2.47;;;;;;;16.29;64.45;100497.69;5027150;28;20099;-42
2022/07/29 06:03:06;;;;;;;3.75;2.28;;;;;;;16.30;64.09;100495.06;5029889;28;20570;-41
2022/07/29 06:05:33;;;;;;;3.63;1.25;;;;;;;16.33;64.44;100499.38;5029298;28;20733;-43
2022/07/29 06:08:00;;;;;;;3.65;1.88;;;;;;;16.39;64.68;100504.47;5032371;28;20566;-46
2022/07/29 06:10:26;;;;;;;5.63;2.58;;;;;;;16.45;64.61;100506.97;5026873;28;20049;-43
2022/07/29 06:12:53;;;;;;;2.33;2.08;;;;;;;16.49;64.14;100504.28;5034091;28;20052;-47
2022/07/29 06:15:20;;;;;;;8.80;2.22;;;;;;;16.52;64.11;100504.22;5030623;28;20049;-44
2022/07/29 06:17:47;;;;;;;4.68;2.15;;;;;;;16.56;64.38;100508.50;5030128;28;20050;-44
2022/07/29 06:20:30;;;;;;;4.13;1.90;;;;;;;16.63;63.95;100507.50;5033319;28;20041;-43
2022/07/29 06:22:58;;;;;;;3.17;1.90;;;;;;;16.66;64.35;100507.44;5028090;28;20667;-44
2022/07/29 06:25:25;;;;;;;9.57;2.50;;;;;;;16.68;64.26;100505.63;5031842;28;20134;-41
2022/07/29 06:27:52;;;;;;;8.30;2.20;;;;;;;16.72;64.26;100503.78;5027637;28;20047;-45
2022/07/29 06:30:19;;;;;;;2.00;1.45;;;;;;;16.80;63.76;100508.88;5026404;28;20186;-42
2022/07/29 06:32:46;;;;;;;6.32;1.77;;;;;;;16.93;64.04;100514.72;5030772;28;20044;-43
2022/07/29 06:35:12;;;;;;;4.60;2.72;;;;;;;17.05;63.91;100510.94;5020468;28;20103;-45
2022/07/29 06:37:59;;;;;;;2.20;1.92;;;;;;;17.23;64.01;100511.47;5029942;28;20080;-44
2022/07/29 06:43:13;;;;;;;4.60;1.90;;;;;;;17.29;63.62;100511.34;5029711;28;20077;-44
2022/07/29 06:45:40;;;;;;;6.25;2.30;;;;;;;17.31;63.73;100514.75;5032130;28;20118;-42
2022/07/29 06:48:09;;;;;;;2.85;1.83;;;;;;;17.40;63.54;100518.94;5038602;28;20051;-41
2022/07/29 06:50:36;;;;;;;4.97;1.85;;;;;;;17.51;63.72;100518.66;5035071;28;20528;-45
2022/07/29 06:53:03;;;;;;;5.72;2.08;;;;;;;17.60;63.85;100516.69;5026939;28;20092;-46
2022/07/29 06:55:29;;;;;;;3.08;2.17;;;;;;;17.77;63.32;100517.16;5025433;28;20124;-42
2022/07/29 06:57:57;;;;;;;3.92;2.08;;;;;;;17.97;62.99;100519.28;5027699;28;20049;-42
2022/07/29 07:00:25;;;;;;;4.32;2.03;;;;;;;18.13;62.39;100519.75;5021354;28;20061;-42
2022/07/29 07:02:51;;;;;;;5.88;2.42;;;;;;;18.28;62.65;100523.75;5029539;28;20049;-42
2022/07/29 07:05:18;;;;;;;2.95;1.95;;;;;;;18.45;62.23;100525.03;5023465;28;20095;-44
2022/07/29 07:07:45;;;;;;;8.90;2.15;;;;;;;18.55;61.93;100520.38;5031205;28;20505;-43
2022/07/29 07:10:12;;;;;;;5.85;0.75;;;;;;;18.68;61.45;100531.38;5025015;28;20612;-43
2022/07/29 07:12:38;;;;;;;6.07;2.03;;;;;;;18.78;61.54;100516.22;5037074;28;20041;-45
2022/07/29 07:15:06;;;;;;;3.47;2.05;;;;;;;18.92;60.87;100519.31;5023690;28;20045;-43
2022/07/29 07:17:32;;;;;;;4.93;1.80;;;;;;;19.09;61.28;100525.84;5031188;28;20118;-47
2022/07/29 07:19:59;;;;;;;3.33;1.92;;;;;;;19.25;60.46;100534.94;5024075;28;20071;-48
2022/07/29 07:22:25;;;;;;;6.57;1.95;;;;;;;19.34;60.83;100532.94;5030103;28;20091;-45
2022/07/29 07:24:52;;;;;;;4.80;2.58;;;;;;;19.42;60.15;100532.69;5023800;28;20490;-42
2022/07/29 07:27:19;;;;;;;3.15;0.90;;;;;;;19.50;59.90;100533.31;5028827;28;20768;-41
2022/07/29 07:29:45;;;;;;;4.18;2.17;;;;;;;19.57;59.49;100531.34;5022610;28;20050;-47
2022/07/29 07:32:13;;;;;;;6.03;2.00;;;;;;;19.60;59.87;100531.25;5024703;28;20050;-45
2022/07/29 07:34:39;;;;;;;5.68;2.42;;;;;;;19.64;59.79;100538.97;5032565;28;20124;-48
2022/07/29 07:37:06;;;;;;;4.90;1.60;;;;;;;19.68;59.76;100539.72;5031953;28;20418;-47
2022/07/29 07:39:33;;;;;;;3.38;1.80;;;;;;;19.71;59.88;100531.75;5029296;28;20061;-42
2022/07/29 07:42:00;;;;;;;5.55;2.00;;;;;;;19.75;59.59;100536.00;5030553;28;20045;-49
2022/07/29 07:44:27;;;;;;;3.58;1.75;;;;;;;19.75;59.26;100530.72;5033607;28;20057;-45
2022/07/29 07:46:53;;;;;;;6.85;2.38;;;;;;;19.76;59.38;100535.06;5024848;28;20053;-46
2022/07/29 07:49:20;;;;;;;2.75;1.90;;;;;;;19.84;59.85;100533.97;5032197;28;20052;-46
2022/07/29 07:51:47;;;;;;;5.85;1.70;;;;;;;19.93;59.68;100531.03;5036787;28;20041;-44
2022/07/29 07:54:16;;;;;;;6.03;1.80;;;;;;;19.97;59.55;100532.66;5035413;28;20041;-44
2022/07/29 07:56:48;;;;;;;4.90;1.67;;;;;;;20.00;59.32;100536.97;5041171;28;20045;-47
2022/07/29 07:59:18;;;;;;;3.45;1.88;;;;;;;20.01;59.10;100531.66;5036876;28;20095;-49
2022/07/29 08:01:45;;;;;;;4.30;1.70;;;;;;;19.99;59.84;100538.72;5037056;28;20056;-45
2022/07/29 08:04:21;;;;;;;5.35;0.63;;;;;;;19.99;58.97;100532.59;5036488;28;20531;-47
2022/07/29 08:06:54;;;;;;;4.47;2.45;;;;;;;20.02;59.11;100541.25;5037876;28;20060;-46
2022/07/29 08:09:21;;;;;;;8.05;2.63;;;;;;;20.12;58.99;100538.28;5038604;28;20107;-45
2022/07/29 08:11:56;;;;;;;5.30;2.53;;;;;;;20.33;59.09;100546.34;5037538;28;20054;-45
2022/07/29 08:14:23;;;;;;;6.78;2.50;;;;;;;20.57;59.09;100543.75;5035691;28;20050;-45
2022/07/29 08:16:50;;;;;;;6.07;1.85;;;;;;;20.74;58.14;100533.44;5034449;28;20052;-47
2022/07/29 08:19:18;;;;;;;4.38;2.10;;;;;;;20.99;58.44;100535.19;5036160;28;20167;-42
2022/07/29 08:21:45;;;;;;;4.63;1.98;;;;;;;21.42;58.42;100526.50;5033410;28;20069;-42
2022/07/29 08:26:58;;;;;;;2.30;1.48;;;;;;;22.33;56.24;100540.25;5018768;28;20050;-50
2022/07/29 08:29:25;;;;;;;3.67;1.88;;;;;;;22.63;54.60;100541.59;5034814;28;20061;-45
2022/07/29 08:31:51;;;;;;;6.18;1.58;;;;;;;22.97;54.60;100539.22;5030648;28;20049;-47
2022/07/29 08:34:18;;;;;;;2.38;2.15;;;;;;;23.20;51.85;100548.66;5031791;28;20111;-47
2022/07/29 08:36:53;;;;;;;3.25;1.88;;;;;;;23.34;52.04;100545.34;5034443;28;20053;-43
2022/07/29 08:39:20;;;;;;;5.07;1.58;;;;;;;23.44;51.30;100539.66;5038230;28;20056;-45
2022/07/29 08:41:47;;;;;;;4.53;2.03;;;;;;;23.67;50.55;100548.25;5026041;28;20053;-47
2022/07/29 08:44:23;;;;;;;2.83;2.33;;;;;;;23.81;50.04;100540.44;5036238;28;20053;-51
2022/07/29 08:46:56;;;;;;;4.60;1.88;;;;;;;24.01;50.61;100535.94;5040077;28;20063;-42
2022/07/29 08:49:23;;;;;;;2.38;1.85;;;;;;;24.24;48.52;100531.25;5039102;28;20568;-43
2022/07/29 08:51:51;;;;;;;3.72;2.15;;;;;;;24.35;48.37;100530.72;5028073;28;20104;-44
2022/07/29 08:54:18;;;;;;;4.15;1.83;;;;;;;24.52;47.70;100530.66;5035882;28;20049;-46
2022/07/29 08:56:49;;;;;;;3.05;1.88;;;;;;;24.74;48.26;100539.22;5030785;28;20053;-46
2022/07/29 08:59:20;;;;;;;3.97;1.98;;;;;;;25.01;48.37;100536.88;5025789;28;20059;-47
2022/07/29 09:01:52;;;;;;;3.80;2.13;;;;;;;25.24;47.37;100536.50;5040557;28;20049;-47
2022/07/29 09:04:21;;;;;;;4.63;2.10;;;;;;;25.53;47.00;100540.13;5032865;28;20053;-48
2022/07/29 09:06:51;;;;;;;5.50;1.70;;;;;;;25.82;46.08;100536.75;5025070;28;20045;-45
2022/07/29 09:09:17;;;;;;;4.30;2.20;;;;;;;25.81;45.31;100535.03;5025290;28;20511;-48
2022/07/29 09:11:44;;;;;;;4.47;2.28;;;;;;;25.69;45.10;100535.78;5026521;28;20878;-46
2022/07/29 09:14:13;;;;;;;3.75;2.38;;;;;;;25.73;45.78;100538.13;5031385;28;20041;-46
2022/07/29 09:19:37;;;;;;;4.32;1.08;;;;;;;25.66;44.60;100527.03;5003304;27;20479;-50
2022/07/29 09:22:11;;;;;;;3.72;1.30;;;;;;;25.57;44.61;100524.91;5001641;28;20100;-47
2022/07/29 09:30:06;;;;;;;5.25;1.02;;;;;;;25.65;45.02;100519.16;5045930;28;20437;-49
2022/07/29 09:32:53;;;;;;;5.43;1.45;;;;;;;25.97;44.55;100523.50;5000827;28;20042;-45
2022/07/29 09:35:25;;;;;;;7.35;1.20;;;;;;;26.24;43.96;100520.13;4997067;28;20054;-46
2022/07/29 09:37:51;;;;;;;6.35;2.17;;;;;;;26.56;44.08;100514.63;5001792;28;20449;-49
2022/07/29 09:40:21;;;;;;;2.95;1.10;;;;;;;26.78;43.25;100524.72;4997652;28;20808;-47
2022/07/29 09:42:49;;;;;;;9.10;2.38;;;;;;;26.88;42.87;100519.69;5000592;28;20506;-45
2022/07/29 09:45:33;;;;;;;3.25;1.42;;;;;;;26.97;42.06;100522.72;4999951;28;20521;-47
2022/07/29 09:48:13;;;;;;;6.80;1.90;;;;;;;26.98;41.17;100525.28;5005004;28;20038;-50
2022/07/29 09:50:41;;;;;;;6.15;1.42;;;;;;;27.00;41.10;100527.84;5001771;28;20050;-47
2022/07/29 09:53:09;;;;;;;5.75;1.40;;;;;;;27.12;42.00;100523.56;4997893;28;20073;-50
2022/07/29 09:55:52;;;;;;;4.43;1.42;;;;;;;27.30;42.13;100529.47;5003928;28;20062;-48
2022/07/29 09:58:22;;;;;;;2.47;1.30;;;;;;;27.41;41.19;100528.75;5003666;28;20046;-46
2022/07/29 10:00:50;;;;;;;4.13;1.20;;;;;;;27.52;40.28;100536.84;5003156;28;20097;-44
2022/07/29 10:03:18;;;;;;;3.80;1.23;;;;;;;27.64;40.72;100535.22;4999290;28;20458;-43
2022/07/29 10:05:46;;;;;;;3.97;1.17;;;;;;;27.85;39.97;100529.38;4999123;28;20812;-46
2022/07/29 10:08:13;;;;;;;3.65;1.20;;;;;;;28.01;39.93;100523.00;5000258;28;20465;-46
2022/07/29 10:10:41;;;;;;;3.92;1.20;;;;;;;28.07;39.21;100527.91;5002260;28;20050;-45
2022/07/29 10:13:11;;;;;;;3.13;1.00;;;;;;;28.21;39.34;100522.50;4997472;28;20050;-45
2022/07/29 10:15:45;;;;;;;4.28;1.15;;;;;;;28.47;39.76;100524.28;4997339;28;20049;-46
2022/07/29 10:18:14;;;;;;;3.35;1.45;;;;;;;28.56;38.33;100523.63;5002399;28;20046;-46
2022/07/29 10:20:41;;;;;;;2.38;1.08;;;;;;;28.73;38.27;100519.75;4996944;28;20081;-48
2022/07/29 10:23:09;;;;;;;5.32;1.23;;;;;;;28.84;38.55;100526.13;5000943;28;20050;-47
2022/07/29 10:25:35;;;;;;;2.75;2.03;;;;;;;28.94;37.68;100521.00;5001580;28;20426;-47
2022/07/29 10:28:02;;;;;;;4.68;1.35;;;;;;;28.91;37.08;100521.19;4997024;28;20046;-46
2022/07/29 10:30:30;;;;;;;3.08;0.88;;;;;;;28.96;37.95;100525.25;5003803;28;20057;-48
2022/07/29 10:38:41;;;;;;;2.92;1.92;;;;;;;29.14;36.63;100516.84;5085370;27;20401;-46
2022/07/29 10:44:16;;;;;;;2.38;0.85;;;;;;;29.66;36.14;100516.59;5052488;28;20769;-45
2022/07/29 10:46:45;;;;;;;4.45;0.90;;;;;;;29.68;36.23;100525.31;5011648;28;20049;-45
2022/07/29 10:49:16;;;;;;;4.20;0.68;;;;;;;29.70;35.06;100523.41;5000893;28;20135;-47
2022/07/29 10:52:04;;;;;;;3.65;1.27;;;;;;;29.44;35.13;100523.53;5002749;28;20076;-47
2022/07/29 10:59:51;;;;;;;1.75;1.08;;;;;;;29.47;35.26;100523.28;5014816;28;20395;-48
2022/07/29 11:10:47;;;;;;;4.32;1.10;;;;;;;29.98;34.46;100521.25;5053287;27;20408;-47
2022/07/29 11:16:21;;;;;;;6.72;1.65;;;;;;;30.12;34.34;100522.00;5022128;27;20417;-49
2022/07/29 11:19:19;;;;;;;3.03;1.45;;;;;;;30.15;33.25;100513.75;4984324;28;20546;-48
2022/07/29 11:21:55;;;;;;;5.32;1.33;;;;;;;30.26;34.16;100512.94;4987168;28;20045;-47
2022/07/29 11:24:30;;;;;;;3.90;1.83;;;;;;;30.29;32.68;100506.50;4998085;28;20050;-46
2022/07/29 11:27:16;;;;;;;2.33;1.55;;;;;;;30.27;33.37;100515.50;4986586;28;20050;-51
2022/07/29 11:32:36;;;;;;;4.68;2.78;;;;;;;30.52;33.67;100507.31;5040559;28;20409;-51
2022/07/29 11:41:29;;;;;;;3.28;1.50;;;;;;;30.39;32.34;100507.44;5050190;28;20407;-46
2022/07/29 11:43:59;;;;;;;4.28;1.95;;;;;;;30.37;33.23;100506.72;5035763;28;20043;-47
2022/07/29 11:46:48;;;;;;;3.65;1.52;;;;;;;30.39;33.34;100524.34;5022551;28;20045;-48
2022/07/29 11:49:25;;;;;;;4.88;1.65;;;;;;;30.41;32.23;100508.19;5033472;28;20124;-50
2022/07/29 11:52:00;;;;;;;3.22;1.05;;;;;;;30.43;32.06;100506.25;5036021;28;20049;-47
2022/07/29 11:54:33;;;;;;;4.80;1.63;;;;;;;30.50;32.52;100510.09;5028618;28;20050;-47
2022/07/29 11:57:20;;;;;;;3.35;1.33;;;;;;;30.60;32.42;100514.72;5038751;28;20045;-48
2022/07/29 11:59:48;;;;;;;2.95;1.00;;;;;;;30.59;31.82;100502.34;5032744;28;20050;-48
2022/07/29 12:02:16;;;;;;;3.28;1.10;;;;;;;30.56;32.36;100495.41;5030259;28;20503;-44
2022/07/29 12:05:03;;;;;;;6.30;2.38;;;;;;;30.53;32.08;100493.81;5039151;28;20077;-52
2022/07/29 12:07:49;;;;;;;3.65;1.60;;;;;;;30.60;32.33;100501.34;5028270;28;20147;-48
2022/07/29 12:10:18;;;;;;;5.00;1.88;;;;;;;30.59;32.39;100487.13;5028951;28;20042;-53
2022/07/29 12:12:55;;;;;;;2.85;1.35;;;;;;;30.69;32.48;100486.41;5037289;28;20049;-49
2022/07/29 12:15:23;;;;;;;3.35;1.40;;;;;;;30.75;31.62;100486.78;5038625;28;20045;-49
2022/07/29 12:18:14;;;;;;;4.10;1.95;;;;;;;30.89;32.94;100484.78;5025921;28;20104;-48
2022/07/29 12:20:44;;;;;;;2.78;1.35;;;;;;;31.08;32.25;100469.88;5024890;28;20072;-50
2022/07/29 12:23:12;;;;;;;4.30;1.33;;;;;;;31.16;32.14;100472.75;5028020;28;20054;-44
2022/07/29 12:25:43;;;;;;;4.35;1.75;;;;;;;31.26;31.81;100473.69;5031424;28;20639;-47
2022/07/29 12:28:18;;;;;;;5.60;1.80;;;;;;;31.23;31.57;100473.13;5022661;28;20631;-51
2022/07/29 12:30:52;;;;;;;3.58;1.27;;;;;;;31.07;32.53;100468.19;5028266;28;20488;-48
2022/07/29 12:36:00;;;;;;;2.75;2.38;;;;;;;31.24;32.47;100480.16;5087109;27;20395;-49
2022/07/29 12:38:42;;;;;;;3.17;2.55;;;;;;;31.27;31.51;100475.38;5039564;28;20053;-49
2022/07/29 12:41:10;;;;;;;4.43;2.47;;;;;;;31.29;31.56;100465.41;5043543;28;20130;-46
2022/07/29 12:43:36;;;;;;;4.72;3.17;;;;;;;31.46;31.93;100463.16;5053093;28;20049;-45
2022/07/29 12:46:13;;;;;;;7.00;3.22;;;;;;;31.65;31.08;100472.28;5066889;28;20063;-46
2022/07/29 12:48:42;;;;;;;3.50;2.35;;;;;;;31.73;31.36;100460.91;5056489;28;20057;-47
2022/07/29 12:51:11;;;;;;;4.43;2.38;;;;;;;31.75;32.08;100462.50;5072554;28;20048;-48
2022/07/29 12:53:38;;;;;;;6.22;2.60;;;;;;;31.90;32.23;100459.47;5068609;28;20128;-49